Time;durP1;ratioP1;P1;durP2;ratioP2;P2;SDS_P1;SDS_P2;PMS_P1;PMS_P2;Temp;Humidity;BMP_temperature;BMP_pressure;BME280_temperature;BME280_humidity;BME280_pressure;Samples;Min_cycle;Max_cycle;Signal;HPM_P1;HPM_P2
2021/12/17 00:00:47;;;;;;;;;50.25;39.50;;;;;10.32;68.34;102987.59;5110852;27;45843;-80
2021/12/17 00:03:19;;;;;;;;;49.50;39.00;;;;;10.18;68.33;102974.09;5113672;27;47581;-78
2021/12/17 00:08:17;;;;;;;;;38.75;35.00;;;;;10.27;68.40;102986.88;5079101;28;45763;-82
2021/12/17 00:10:47;;;;;;;;;47.25;38.00;;;;;10.23;68.48;102977.41;5075897;28;45723;-81
2021/12/17 00:13:12;;;;;;;;;43.00;37.25;;;;;10.17;68.53;102977.59;5074908;28;45718;-83
2021/12/17 00:15:39;;;;;;;;;40.75;36.25;;;;;10.21;68.70;102989.69;5074766;28;46116;-83
2021/12/17 00:18:33;;;;;;;;;47.25;38.25;;;;;10.23;68.60;102985.28;5074468;28;45800;-83
2021/12/17 00:48:51;;;;;;;;;45.00;37.00;;;;;10.10;68.84;102974.28;5077700;28;45848;-80
2021/12/17 00:54:19;;;;;;;;;42.50;38.00;;;;;10.07;69.16;102969.16;5083891;28;45646;-83
2021/12/17 00:56:52;;;;;;;;;48.00;40.75;;;;;10.05;69.17;102965.69;5083389;28;46362;-83
2021/12/17 00:59:22;;;;;;;;;42.25;36.75;;;;;9.74;69.06;102917.81;5081896;28;46259;-79
2021/12/17 01:05:16;;;;;;;;;52.50;39.00;;;;;10.01;69.11;102966.72;5097860;27;45592;-78
2021/12/17 01:08:02;;;;;;;;;48.75;40.25;;;;;9.98;69.12;102969.44;5096237;27;45861;-80
2021/12/17 01:10:40;;;;;;;;;46.00;39.25;;;;;9.80;69.48;102939.44;5080165;27;47642;-81
2021/12/17 01:13:15;;;;;;;;;45.50;38.50;;;;;9.27;69.39;102850.31;5080551;27;45580;-83
2021/12/17 01:15:46;;;;;;;;;44.50;36.75;;;;;9.55;69.48;102917.53;5098108;27;45880;-84
2021/12/17 01:18:17;;;;;;;;;53.25;42.25;;;;;9.47;69.63;102906.41;5099059;27;47661;-83
2021/12/17 01:21:58;;;;;;;;;49.50;40.75;;;;;9.47;69.78;102907.28;5098614;27;45631;-83
2021/12/17 01:37:19;;;;;;;;;43.75;39.00;;;;;9.79;69.83;102957.78;5097465;27;45574;-82
2021/12/17 01:42:23;;;;;;;;;44.50;38.75;;;;;9.74;69.89;102947.47;5097136;27;46174;-81
2021/12/17 01:44:50;;;;;;;;;47.25;40.75;;;;;9.67;70.11;102946.78;5096669;27;45626;-80
2021/12/17 01:47:15;;;;;;;;;44.25;37.25;;;;;9.58;69.84;102940.97;5097014;27;45458;-81
2021/12/17 02:03:38;;;;;;;;;47.25;39.50;;;;;9.59;70.08;102948.78;5097321;27;45709;-83
2021/12/17 02:06:05;;;;;;;;;45.00;38.50;;;;;9.57;70.00;102952.34;5098143;27;45794;-82
2021/12/17 02:08:31;;;;;;;;;42.75;38.50;;;;;9.56;70.12;102951.47;5097709;27;45813;-81
2021/12/17 02:19:58;;;;;;;;;46.50;38.25;;;;;9.42;70.49;102947.56;5098127;27;45669;-81
2021/12/17 02:23:18;;;;;;;;;47.50;37.75;;;;;9.04;70.63;102896.31;5080877;27;47222;-83
2021/12/17 02:31:17;;;;;;;;;35.25;32.75;;;;;9.15;70.58;102923.03;5086516;27;45728;-83
2021/12/17 02:33:48;;;;;;;;;41.75;37.25;;;;;8.73;70.35;102860.59;5099165;27;46814;-81
2021/12/17 02:36:27;;;;;;;;;48.50;38.75;;;;;8.73;70.50;102863.19;5098365;27;45521;-83
2021/12/17 02:47:24;;;;;;;;;43.25;36.75;;;;;9.11;70.55;102924.88;5055306;28;45878;-82
2021/12/17 02:49:50;;;;;;;;;41.25;37.50;;;;;9.20;70.73;102929.00;5059734;28;45541;-80
2021/12/17 02:52:24;;;;;;;;;49.50;35.50;;;;;9.14;70.71;102923.94;5060028;28;45716;-79
2021/12/17 02:54:50;;;;;;;;;48.50;38.00;;;;;9.23;70.73;102934.97;5055935;28;46424;-77
2021/12/17 02:57:16;;;;;;;;;39.25;36.25;;;;;9.10;70.93;102917.94;5055914;28;46131;-79
2021/12/17 02:59:41;;;;;;;;;37.25;34.50;;;;;9.17;70.67;102936.94;5055419;28;45679;-79
2021/12/17 03:02:09;;;;;;;;;45.00;37.25;;;;;9.25;70.73;102945.41;5053260;28;45550;-78
2021/12/17 03:04:39;;;;;;;;;43.25;39.00;;;;;9.18;70.78;102931.63;5035742;28;45669;-81
2021/12/17 03:07:05;;;;;;;;;40.75;32.25;;;;;9.23;70.83;102940.22;5035843;28;46026;-80
2021/12/17 03:09:55;;;;;;;;;43.50;34.00;;;;;9.16;70.73;102928.22;5053193;28;45960;-78
2021/12/17 03:12:28;;;;;;;;;42.00;36.00;;;;;9.19;70.87;102930.75;5053106;28;45826;-79
2021/12/17 03:15:06;;;;;;;;;44.50;35.75;;;;;9.15;71.03;102929.13;5053270;28;46284;-85
2021/12/17 03:25:44;;;;;;;;;47.25;41.00;;;;;9.11;70.91;102931.88;5096280;27;46182;-80
2021/12/17 03:28:09;;;;;;;;;36.00;33.00;;;;;9.08;70.93;102927.56;5095672;27;46173;-81
2021/12/17 03:30:35;;;;;;;;;40.25;36.50;;;;;9.07;70.99;102920.63;5096165;27;46005;-81
2021/12/17 03:33:00;;;;;;;;;39.75;36.00;;;;;9.07;70.86;102920.63;5096311;27;45752;-84
2021/12/17 03:35:28;;;;;;;;;43.25;38.50;;;;;9.06;70.82;102933.75;5095968;27;46380;-85
2021/12/17 03:37:54;;;;;;;;;37.75;35.25;;;;;9.04;70.82;102933.78;5095809;27;45591;-79
2021/12/17 03:40:20;;;;;;;;;42.00;36.00;;;;;8.99;70.92;102930.44;5095910;27;45629;-79
2021/12/17 03:42:50;;;;;;;;;42.50;37.25;;;;;8.98;70.64;102933.94;5096422;27;45623;-77
2021/12/17 03:45:18;;;;;;;;;47.00;36.75;;;;;9.00;71.21;102932.16;5082485;27;46663;-80
2021/12/17 03:47:45;;;;;;;;;41.00;37.50;;;;;8.87;71.28;102917.69;5104682;27;47267;-83
2021/12/17 03:50:14;;;;;;;;;38.75;33.50;;;;;8.92;71.38;102930.63;5102988;27;45599;-81
2021/12/17 03:52:42;;;;;;;;;40.25;34.00;;;;;8.88;71.31;102924.66;5101919;27;45786;-85
2021/12/17 03:55:11;;;;;;;;;39.25;35.25;;;;;8.84;71.28;102915.19;5103906;27;46003;-84
2021/12/17 03:57:37;;;;;;;;;40.50;36.50;;;;;8.96;71.23;102947.97;5102645;27;46011;-81
2021/12/17 04:00:08;;;;;;;;;40.75;36.00;;;;;8.73;71.26;102894.56;5102545;27;45685;-80
2021/12/17 04:02:35;;;;;;;;;47.25;37.25;;;;;8.77;71.30;102908.38;5099711;27;45589;-77
2021/12/17 04:05:03;;;;;;;;;38.00;36.00;;;;;8.98;71.36;102946.16;5095993;27;47362;-82
2021/12/17 04:07:28;;;;;;;;;45.50;35.75;;;;;8.92;71.37;102928.88;5096277;27;45547;-81
2021/12/17 04:09:54;;;;;;;;;44.00;39.50;;;;;9.00;71.39;102944.38;5097783;27;46030;-83
2021/12/17 04:12:23;;;;;;;;;38.50;35.50;;;;;8.99;71.45;102940.91;5100455;27;45559;-82
2021/12/17 04:14:51;;;;;;;;;37.25;33.00;;;;;9.04;71.28;102940.78;5099366;27;46977;-84
2021/12/17 04:17:23;;;;;;;;;48.75;37.50;;;;;9.05;71.34;102938.13;5099416;27;47155;-82
2021/12/17 04:19:49;;;;;;;;;42.25;34.75;;;;;9.07;71.04;102935.47;5081957;27;45582;-84
2021/12/17 04:22:17;;;;;;;;;42.25;36.00;;;;;9.10;71.51;102935.38;5099670;27;45510;-84
2021/12/17 04:24:42;;;;;;;;;43.00;36.25;;;;;9.12;71.22;102930.97;5099231;27;46424;-83
2021/12/17 04:27:11;;;;;;;;;42.00;36.25;;;;;9.13;71.05;102936.13;5098969;27;46233;-84
2021/12/17 04:29:41;;;;;;;;;39.25;35.25;;;;;9.12;71.46;102926.56;5099878;27;45797;-84
2021/12/17 04:32:12;;;;;;;;;48.25;37.50;;;;;9.07;71.04;102912.78;5100084;27;45754;-82
2021/12/17 04:34:38;;;;;;;;;42.50;37.00;;;;;9.19;71.48;102938.59;5098909;27;46639;-85
2021/12/17 04:37:03;;;;;;;;;38.75;32.75;;;;;9.20;71.49;102929.00;5099345;27;46082;-85
2021/12/17 04:39:29;;;;;;;;;40.75;33.75;;;;;9.22;71.17;102932.44;5099234;27;45465;-84
2021/12/17 04:42:06;;;;;;;;;36.50;36.00;;;;;9.23;71.20;102929.75;5099087;27;45500;-81
2021/12/17 04:45:01;;;;;;;;;44.75;39.50;;;;;9.17;71.48;102922.09;5099021;27;46944;-84
2021/12/17 04:58:38;;;;;;;;;47.00;37.50;;;;;9.23;71.34;102903.59;5102528;27;45794;-81
2021/12/17 05:01:09;;;;;;;;;43.25;34.00;;;;;9.33;71.54;102929.50;5085644;27;45713;-80
2021/12/17 05:03:34;;;;;;;;;54.50;40.75;;;;;9.33;71.47;102927.75;5078620;28;45724;-80
2021/12/17 05:06:02;;;;;;;;;54.75;38.00;;;;;9.35;71.29;102931.16;5059672;28;48874;-83
2021/12/17 05:08:28;;;;;;;;;38.25;33.25;;;;;9.29;71.39;102905.19;5078742;28;47195;-82
2021/12/17 05:11:21;;;;;;;;;41.75;36.00;;;;;9.34;71.54;102915.53;5078837;28;45624;-82
2021/12/17 05:19:24;;;;;;;;;34.00;30.75;;;;;9.43;71.38;102923.97;5062756;28;45728;-78
2021/12/17 05:21:50;;;;;;;;;39.50;32.00;;;;;9.42;71.44;102922.25;5076728;28;45475;-81
2021/12/17 05:24:18;;;;;;;;;38.50;31.25;;;;;9.37;71.48;102908.44;5078753;28;45551;-84
2021/12/17 05:26:43;;;;;;;;;44.50;36.00;;;;;9.45;71.51;102923.91;5083030;28;47514;-80
2021/12/17 05:29:09;;;;;;;;;36.25;31.00;;;;;9.45;71.69;102927.38;5082525;28;45704;-78
2021/12/17 05:34:57;;;;;;;;;30.50;29.75;;;;;9.45;71.54;102919.53;5078532;28;45575;-81
2021/12/17 05:37:23;;;;;;;;;41.25;33.00;;;;;9.49;71.42;102920.31;5078746;28;45668;-82
2021/12/17 05:39:48;;;;;;;;;37.50;29.25;;;;;9.51;71.62;102919.34;5078634;28;45577;-82
2021/12/17 05:42:15;;;;;;;;;27.50;23.00;;;;;9.52;71.68;102915.84;5078812;28;45597;-80
2021/12/17 05:44:45;;;;;;;;;38.25;31.50;;;;;9.54;71.48;102915.81;5078770;28;45545;-84
2021/12/17 05:50:35;;;;;;;;;35.75;32.25;;;;;9.56;71.83;102909.59;5077354;28;45754;-81
2021/12/17 05:53:02;;;;;;;;;33.50;30.00;;;;;9.56;71.71;102912.22;5078597;28;45524;-81
2021/12/17 05:55:28;;;;;;;;;34.75;30.75;;;;;9.59;71.61;102906.06;5078256;28;45660;-81
2021/12/17 05:57:53;;;;;;;;;32.00;28.50;;;;;9.54;71.56;102897.50;5078013;28;46355;-82
2021/12/17 06:00:23;;;;;;;;;39.50;35.00;;;;;9.63;71.72;102912.91;5086643;27;46163;-82
2021/12/17 06:06:10;;;;;;;;;31.75;28.25;;;;;9.66;71.69;102913.66;5107231;27;45593;-79
2021/12/17 06:08:36;;;;;;;;;33.00;29.00;;;;;9.65;71.69;102900.63;5109116;27;47281;-76
2021/12/17 06:11:01;;;;;;;;;36.00;29.50;;;;;9.69;71.54;102910.97;5092669;27;45510;-80
2021/12/17 06:13:26;;;;;;;;;34.25;26.00;;;;;9.73;71.68;102916.94;5113443;27;45636;-79
2021/12/17 06:15:52;;;;;;;;;31.00;26.25;;;;;9.75;71.89;102915.16;5117053;27;45539;-79
2021/12/17 06:21:39;;;;;;;;;27.25;26.00;;;;;9.79;71.64;102906.28;5117496;27;45480;-81
2021/12/17 06:24:07;;;;;;;;;37.25;29.25;;;;;9.65;71.58;102882.31;5120011;27;45319;-83
2021/12/17 06:26:33;;;;;;;;;30.50;28.25;;;;;9.75;72.03;102904.69;5095821;27;45380;-78
2021/12/17 06:28:59;;;;;;;;;28.50;24.75;;;;;9.79;71.84;102910.66;5108755;27;46274;-88
2021/12/17 06:31:25;;;;;;;;;27.00;24.00;;;;;9.86;71.83;102907.81;5111558;27;45818;-78
2021/12/17 06:37:43;;;;;;;;;28.50;26.00;;;;;9.89;71.88;102915.56;5107235;27;45930;-84
2021/12/17 06:40:09;;;;;;;;;28.00;23.75;;;;;9.91;71.79;102921.63;5101015;27;46550;-83
2021/12/17 06:42:35;;;;;;;;;27.00;25.00;;;;;9.90;71.83;102912.06;5099575;27;47373;-81
2021/12/17 06:45:05;;;;;;;;;35.25;27.25;;;;;9.95;71.79;102914.53;5099074;27;45602;-82
2021/12/17 06:47:36;;;;;;;;;28.50;26.75;;;;;9.90;71.95;102912.06;5098841;27;45583;-83
2021/12/17 07:06:07;;;;;;;;;28.25;25.00;;;;;10.03;72.01;102918.63;5103852;27;45779;-80
2021/12/17 07:22:44;;;;;;;;;25.00;22.00;;;;;10.10;72.18;102929.75;5096083;27;45498;-78
2021/12/17 07:36:18;;;;;;;;;30.50;22.75;;;;;9.94;72.47;102900.56;5103080;27;45628;-85
2021/12/17 07:38:49;;;;;;;;;25.50;24.00;;;;;10.10;72.30;102927.13;5082653;27;45881;-88
2021/12/17 07:41:18;;;;;;;;;29.25;24.00;;;;;10.18;72.23;102942.66;5099968;27;45528;-87
2021/12/17 07:43:53;;;;;;;;;33.75;27.75;;;;;10.18;72.43;102943.50;5099103;27;46048;-86
2021/12/17 07:46:20;;;;;;;;;28.50;24.25;;;;;10.18;72.41;102950.50;5098614;27;46285;-87
2021/12/17 07:52:07;;;;;;;;;25.00;21.25;;;;;10.19;72.45;102941.75;5097540;27;45471;-86
2021/12/17 07:54:39;;;;;;;;;27.75;24.50;;;;;10.19;72.61;102950.47;5096919;27;47541;-88
2021/12/17 07:57:23;;;;;;;;;29.50;24.00;;;;;10.16;72.60;102936.56;5098058;27;47060;-88
2021/12/17 07:59:51;;;;;;;;;32.50;28.25;;;;;9.69;72.33;102861.22;5081527;27;45898;-83
2021/12/17 08:02:17;;;;;;;;;28.75;27.00;;;;;9.98;72.59;102907.44;5096786;27;45512;-87
2021/12/17 08:08:10;;;;;;;;;27.00;23.00;;;;;10.16;72.34;102929.59;5098404;27;45525;-84
2021/12/17 08:10:35;;;;;;;;;24.75;24.25;;;;;10.26;72.45;102935.38;5063069;27;45816;-85
2021/12/17 08:13:30;;;;;;;;;28.50;23.00;;;;;10.14;72.34;102915.66;5080112;27;45646;-89
2021/12/17 08:30:08;;;;;;;;;38.50;28.00;;;;;10.38;72.56;102953.34;5061184;28;46160;-88
2021/12/17 08:32:34;;;;;;;;;31.50;25.00;;;;;10.39;72.51;102950.66;5061044;28;45554;-85
2021/12/17 08:34:59;;;;;;;;;29.75;27.75;;;;;10.37;72.40;102956.84;5059426;28;45557;-85
2021/12/17 08:37:28;;;;;;;;;30.75;24.75;;;;;10.34;72.60;102943.88;5057072;28;46519;-82
2021/12/17 08:39:54;;;;;;;;;30.75;24.25;;;;;10.42;72.49;102945.31;5057186;28;47221;-89
2021/12/17 08:42:19;;;;;;;;;29.75;26.75;;;;;10.42;72.49;102945.31;5058782;28;45788;-85
2021/12/17 08:44:44;;;;;;;;;34.25;26.00;;;;;10.41;72.45;102946.25;5058959;28;45563;-87
2021/12/17 08:47:10;;;;;;;;;29.50;26.75;;;;;10.46;72.52;102952.19;5057871;28;45553;-82
2021/12/17 08:49:39;;;;;;;;;26.00;23.25;;;;;10.48;72.61;102945.13;5040847;28;46284;-85
2021/12/17 08:52:05;;;;;;;;;28.25;21.25;;;;;10.48;72.47;102949.50;5056764;28;45707;-84
2021/12/17 08:54:31;;;;;;;;;31.25;25.00;;;;;10.49;72.54;102949.47;5057008;28;45676;-86
2021/12/17 08:56:56;;;;;;;;;23.75;21.50;;;;;10.43;72.40;102933.94;5057045;28;46851;-84
2021/12/17 08:59:23;;;;;;;;;26.25;23.75;;;;;10.55;72.50;102939.69;5037964;28;46128;-81
2021/12/17 09:01:48;;;;;;;;;22.50;20.75;;;;;10.53;72.49;102943.19;5055602;28;45613;-81
2021/12/17 09:04:16;;;;;;;;;30.75;24.75;;;;;10.53;72.48;102940.56;5057181;28;45814;-84
2021/12/17 09:06:42;;;;;;;;;31.50;26.25;;;;;10.53;72.43;102950.19;5082701;27;45652;-84
2021/12/17 09:09:08;;;;;;;;;24.75;23.75;;;;;10.50;72.62;102935.44;5079469;27;47128;-82
2021/12/17 09:11:34;;;;;;;;;31.00;25.00;;;;;10.50;72.47;102945.94;5098011;27;45563;-79
2021/12/17 09:14:01;;;;;;;;;30.25;24.25;;;;;10.59;72.60;102952.63;5098889;27;45676;-82
2021/12/17 09:16:27;;;;;;;;;34.50;23.50;;;;;10.56;72.23;102944.00;5098300;27;45653;-79
2021/12/17 09:22:13;;;;;;;;;31.25;27.50;;;;;10.61;72.64;102965.69;5097339;27;45840;-79
2021/12/17 09:24:39;;;;;;;;;24.00;22.50;;;;;10.62;72.65;102956.91;5098437;27;45653;-80
2021/12/17 09:27:05;;;;;;;;;32.75;25.25;;;;;10.58;72.65;102958.75;5098028;27;45684;-81
2021/12/17 09:29:30;;;;;;;;;27.50;25.75;;;;;10.66;72.40;102969.88;5097771;27;46149;-84
2021/12/17 09:31:55;;;;;;;;;25.50;23.00;;;;;10.61;72.39;102971.78;5098153;27;45936;-78
2021/12/17 09:37:42;;;;;;;;;30.25;24.00;;;;;10.66;72.61;102993.47;5097452;27;45880;-81
2021/12/17 09:40:10;;;;;;;;;31.25;27.00;;;;;10.65;72.65;102976.00;5097637;27;45998;-78
2021/12/17 09:42:36;;;;;;;;;32.75;25.50;;;;;10.65;72.64;102976.00;5097621;27;45553;-79
2021/12/17 09:45:04;;;;;;;;;29.00;25.50;;;;;10.65;72.47;102986.50;5096990;27;45608;-73
2021/12/17 09:47:29;;;;;;;;;26.50;22.50;;;;;10.66;72.48;102992.59;5096334;27;46709;-77
2021/12/17 09:53:16;;;;;;;;;28.50;25.25;;;;;10.72;72.41;102993.25;5096062;27;45634;-77
2021/12/17 09:55:42;;;;;;;;;32.50;28.00;;;;;10.75;72.60;102998.38;5095562;27;46001;-75
2021/12/17 09:58:08;;;;;;;;;31.00;26.75;;;;;10.76;72.69;102989.63;5096430;27;46461;-77
2021/12/17 10:00:33;;;;;;;;;31.75;26.50;;;;;10.82;72.46;103002.53;5097105;27;45812;-77
2021/12/17 10:02:59;;;;;;;;;30.75;28.25;;;;;10.84;72.46;103003.34;5097323;27;45933;-74
2021/12/17 10:08:48;;;;;;;;;31.00;28.50;;;;;10.87;72.50;102997.97;5095759;27;46175;-76
2021/12/17 10:11:15;;;;;;;;;26.50;24.25;;;;;10.76;72.67;102979.13;5096136;27;46183;-77
2021/12/17 10:13:40;;;;;;;;;32.25;29.00;;;;;10.90;72.40;103005.72;5095417;27;46009;-75
2021/12/17 10:16:09;;;;;;;;;35.50;25.00;;;;;10.90;72.39;103000.50;5095331;27;45503;-75
2021/12/17 10:18:40;;;;;;;;;28.75;24.50;;;;;10.91;72.48;102990.84;5095473;27;45662;-78
2021/12/17 10:21:26;;;;;;;;;29.25;25.50;;;;;10.92;72.39;102980.31;5095397;27;46557;-76
2021/12/17 10:23:53;;;;;;;;;30.50;26.75;;;;;10.93;72.24;102975.94;5095171;27;45789;-75
2021/12/17 10:26:21;;;;;;;;;34.50;30.00;;;;;10.92;72.38;102980.31;5095328;27;45782;-76
2021/12/17 10:29:00;;;;;;;;;32.25;25.00;;;;;10.95;72.41;102968.88;5095132;27;45573;-76
2021/12/17 10:31:28;;;;;;;;;36.50;29.25;;;;;10.96;72.40;102962.69;5095401;27;45599;-76
2021/12/17 10:33:55;;;;;;;;;33.50;27.00;;;;;10.91;72.43;102955.00;5095359;27;45829;-75
2021/12/17 10:36:35;;;;;;;;;38.75;32.00;;;;;10.99;72.21;102967.00;5095264;27;45998;-73
2021/12/17 10:39:11;;;;;;;;;31.75;29.50;;;;;11.03;72.30;102960.72;5095056;27;46653;-74
2021/12/17 10:41:46;;;;;;;;;36.75;29.50;;;;;11.01;72.36;102957.31;5094876;27;46615;-75
2021/12/17 10:44:12;;;;;;;;;37.75;30.00;;;;;11.04;72.08;102946.72;5095088;27;45502;-76
2021/12/17 10:46:54;;;;;;;;;35.75;30.75;;;;;11.07;72.55;102943.97;5095327;27;45959;-78
2021/12/17 10:49:24;;;;;;;;;37.50;31.00;;;;;11.07;72.34;102942.19;5095078;27;46680;-75
2021/12/17 10:52:03;;;;;;;;;32.50;30.00;;;;;11.08;72.06;102941.28;5094410;27;46375;-77
2021/12/17 10:54:28;;;;;;;;;32.25;28.75;;;;;11.09;72.32;102935.16;5094586;27;45547;-75
2021/12/17 10:56:55;;;;;;;;;30.00;25.00;;;;;11.10;72.24;102922.88;5094521;27;45787;-77
2021/12/17 10:59:23;;;;;;;;;34.75;28.25;;;;;11.08;72.41;102936.03;5094542;27;46488;-76
2021/12/17 11:02:00;;;;;;;;;28.50;24.25;;;;;11.07;72.25;102931.72;5094365;27;46218;-76
2021/12/17 11:04:28;;;;;;;;;35.50;27.00;;;;;11.08;72.22;102919.44;5093986;27;45717;-75
2021/12/17 11:06:53;;;;;;;;;35.00;26.25;;;;;11.08;72.17;102916.81;5094941;27;46089;-76
2021/12/17 11:09:41;;;;;;;;;27.75;26.00;;;;;11.09;72.22;102915.91;5095005;27;46124;-77
2021/12/17 11:12:28;;;;;;;;;34.00;25.50;;;;;11.10;72.17;102915.88;5094566;27;46744;-75
2021/12/17 11:15:07;;;;;;;;;33.50;31.25;;;;;11.12;72.10;102908.78;5095100;27;45554;-76
2021/12/17 11:17:33;;;;;;;;;30.25;27.25;;;;;11.12;72.07;102895.66;5095003;27;45568;-75
2021/12/17 11:20:03;;;;;;;;;26.50;21.75;;;;;11.14;71.98;102888.59;5093622;27;45749;-77
2021/12/17 11:22:30;;;;;;;;;30.50;27.75;;;;;11.14;72.08;102887.75;5094590;27;46124;-76
2021/12/17 11:24:58;;;;;;;;;29.50;22.00;;;;;11.20;72.08;102892.78;5095948;27;45571;-77
2021/12/17 11:27:25;;;;;;;;;26.75;24.50;;;;;11.19;71.71;102886.66;5095686;27;45694;-77
2021/12/17 11:29:50;;;;;;;;;35.50;29.25;;;;;11.21;71.76;102882.22;5095043;27;45741;-76
2021/12/17 11:32:18;;;;;;;;;32.25;25.50;;;;;11.23;71.96;102879.53;5094476;27;46299;-76
2021/12/17 11:34:44;;;;;;;;;27.75;25.00;;;;;11.19;71.84;102863.06;5094643;27;45828;-75
2021/12/17 11:37:11;;;;;;;;;26.00;25.00;;;;;11.27;71.61;102883.78;5095135;27;45617;-75
2021/12/17 11:39:47;;;;;;;;;25.50;23.00;;;;;11.29;71.59;102879.31;5095075;27;47555;-76
2021/12/17 11:42:24;;;;;;;;;31.50;24.75;;;;;11.30;71.64;102881.03;5094374;27;46311;-77
2021/12/17 11:45:22;;;;;;;;;32.00;25.00;;;;;11.23;71.51;102864.66;5094125;27;45682;-74
2021/12/17 11:47:38;;;;;;;;;36.25;28.25;;;;;11.30;71.52;102876.63;5094425;27;45484;-74
2021/12/17 11:50:06;;;;;;;;;31.50;27.00;;;;;11.31;71.23;102877.50;5094018;27;46390;-76
2021/12/17 11:52:35;;;;;;;;;36.50;28.25;;;;;11.33;71.10;102873.91;5093910;27;46444;-76
2021/12/17 11:55:28;;;;;;;;;32.50;25.75;;;;;11.34;71.14;102872.09;5094110;27;45543;-76
2021/12/17 11:57:59;;;;;;;;;37.00;27.75;;;;;11.27;71.10;102852.28;5094250;27;45541;-75
2021/12/17 12:00:30;;;;;;;;;32.00;28.25;;;;;11.34;70.97;102866.84;5093579;27;47479;-76
2021/12/17 12:03:14;;;;;;;;;38.25;27.75;;;;;11.36;70.95;102860.66;5093427;27;47120;-76
2021/12/17 12:05:42;;;;;;;;;33.25;27.75;;;;;11.40;70.90;102860.53;5093683;27;45703;-75
2021/12/17 12:08:24;;;;;;;;;31.00;26.75;;;;;11.43;70.86;102861.28;5094299;27;45816;-76
2021/12/17 12:11:06;;;;;;;;;39.00;30.25;;;;;11.44;70.86;102867.38;5094144;27;46886;-77
2021/12/17 12:13:44;;;;;;;;;35.75;28.50;;;;;11.45;70.76;102861.19;5093485;27;46081;-77
2021/12/17 12:16:16;;;;;;;;;28.75;28.00;;;;;11.43;70.73;102845.53;5093211;27;45557;-77
2021/12/17 12:18:44;;;;;;;;;33.00;27.00;;;;;11.42;70.72;102833.31;5093693;27;45792;-77
2021/12/17 12:21:11;;;;;;;;;32.75;27.25;;;;;11.44;70.64;102831.50;5092934;27;46812;-76
2021/12/17 12:23:43;;;;;;;;;29.25;27.75;;;;;11.46;70.53;102839.28;5093300;27;47529;-77
2021/12/17 12:26:23;;;;;;;;;32.50;26.75;;;;;11.49;70.55;102831.31;5075437;27;45653;-77
2021/12/17 12:29:05;;;;;;;;;30.50;28.00;;;;;11.55;70.43;102824.03;5094213;27;45611;-74
2021/12/17 12:31:36;;;;;;;;;32.50;26.25;;;;;11.57;70.37;102830.09;5097151;27;46622;-77
2021/12/17 12:34:07;;;;;;;;;31.50;28.00;;;;;11.58;70.31;102834.44;5097307;27;46543;-76
2021/12/17 12:36:50;;;;;;;;;31.00;28.00;;;;;11.60;70.12;102831.75;5097512;27;45830;-76
2021/12/17 12:39:38;;;;;;;;;30.50;25.00;;;;;11.61;70.09;102836.06;5097414;27;45503;-74
2021/12/17 12:42:09;;;;;;;;;28.75;24.75;;;;;11.61;69.98;102823.78;5096087;27;47859;-78
2021/12/17 12:44:44;;;;;;;;;26.00;25.25;;;;;11.64;69.83;102817.56;5097180;27;46108;-77
2021/12/17 12:47:16;;;;;;;;;28.25;25.50;;;;;11.66;69.96;102815.75;5097476;27;45526;-77
2021/12/17 12:53:10;;;;;;;;;32.50;26.50;;;;;11.70;69.69;102812.09;5096913;27;46075;-75
2021/12/17 12:55:43;;;;;;;;;33.25;28.75;;;;;11.73;69.75;102812.84;5097304;27;46031;-75
2021/12/17 12:58:18;;;;;;;;;34.50;28.50;;;;;11.72;69.55;102815.47;5096984;27;45875;-77
2021/12/17 13:00:49;;;;;;;;;33.25;28.00;;;;;11.74;69.54;102813.69;5096965;27;45908;-77
2021/12/17 13:03:22;;;;;;;;;31.75;24.50;;;;;11.73;69.48;102811.97;5096741;27;47318;-77
2021/12/17 13:09:09;;;;;;;;;26.50;22.75;;;;;11.69;69.36;102805.97;5096968;27;45509;-77
2021/12/17 13:11:44;;;;;;;;;27.00;25.00;;;;;11.71;69.24;102803.28;5078891;27;45526;-76
2021/12/17 13:14:17;;;;;;;;;21.75;21.00;;;;;11.76;69.28;102809.25;5096967;27;46363;-75
2021/12/17 13:16:55;;;;;;;;;28.50;25.00;;;;;11.81;69.19;102809.06;5096636;27;46261;-75
2021/12/17 13:25:27;;;;;;;;;33.50;27.00;;;;;11.83;68.60;102799.31;5096494;27;45657;-77
2021/12/17 13:27:56;;;;;;;;;26.25;22.50;;;;;11.81;68.65;102799.41;5096946;27;46494;-77
2021/12/17 13:30:25;;;;;;;;;27.25;25.00;;;;;11.81;68.45;102803.81;5096539;27;45571;-76
2021/12/17 13:32:52;;;;;;;;;26.00;22.25;;;;;11.78;68.59;102800.38;5096362;27;45948;-78
2021/12/17 13:35:18;;;;;;;;;24.50;22.25;;;;;11.79;68.23;102801.22;5096557;27;45558;-76
2021/12/17 13:37:44;;;;;;;;;24.00;22.50;;;;;11.80;68.34;102807.34;5095896;27;46114;-75
2021/12/17 13:40:12;;;;;;;;;22.75;21.50;;;;;11.79;68.20;102814.34;5096455;27;45620;-76
2021/12/17 13:42:42;;;;;;;;;23.00;22.00;;;;;11.76;68.30;102811.88;5095118;27;45897;-76
2021/12/17 13:45:14;;;;;;;;;21.25;18.75;;;;;11.62;68.17;102796.63;5096040;27;45757;-77
2021/12/17 13:47:45;;;;;;;;;21.25;19.50;;;;;11.65;67.78;102799.16;5096065;27;45863;-76
2021/12/17 13:50:33;;;;;;;;;21.00;18.50;;;;;11.67;68.06;102794.66;5095877;27;45620;-76
2021/12/17 13:53:05;;;;;;;;;22.00;20.00;;;;;11.66;68.09;102800.81;5095713;27;46391;-75
2021/12/17 13:55:32;;;;;;;;;28.50;22.25;;;;;11.59;68.00;102781.00;5095518;27;46745;-76
2021/12/17 13:58:00;;;;;;;;;22.25;21.25;;;;;11.65;68.13;102793.03;5096235;27;45750;-76
2021/12/17 14:00:36;;;;;;;;;23.00;20.25;;;;;11.66;68.01;102781.63;5095984;27;45666;-75
2021/12/17 14:03:02;;;;;;;;;21.50;19.50;;;;;11.67;68.10;102775.44;5095740;27;45976;-76
2021/12/17 14:05:45;;;;;;;;;26.00;21.25;;;;;11.65;67.85;102772.03;5076981;27;47432;-77
2021/12/17 14:08:17;;;;;;;;;20.75;18.25;;;;;11.70;67.85;102784.06;5095378;27;45845;-76
2021/12/17 14:10:43;;;;;;;;;27.75;24.00;;;;;11.71;67.90;102772.59;5095302;27;45866;-76
2021/12/17 14:13:23;;;;;;;;;22.00;21.25;;;;;11.81;67.65;102781.03;5095097;27;45599;-78
2021/12/17 14:15:52;;;;;;;;;23.50;21.25;;;;;11.84;67.72;102782.66;5095097;27;45549;-75
2021/12/17 14:18:20;;;;;;;;;22.50;20.50;;;;;11.88;67.90;102782.44;5093848;27;46741;-78
2021/12/17 14:20:52;;;;;;;;;16.25;15.50;;;;;11.87;67.56;102780.78;5095424;27;45599;-76
2021/12/17 14:23:19;;;;;;;;;21.00;15.00;;;;;11.82;67.40;102782.72;5095710;27;45681;-77
2021/12/17 14:26:07;;;;;;;;;18.75;16.00;;;;;11.77;67.26;102784.66;5095168;27;46937;-77
2021/12/17 14:28:38;;;;;;;;;19.75;18.00;;;;;11.63;67.43;102774.72;5095488;27;45572;-78
2021/12/17 14:31:15;;;;;;;;;20.25;17.00;;;;;11.68;67.28;102772.75;5095315;27;45766;-79
2021/12/17 14:33:41;;;;;;;;;20.00;17.50;;;;;11.67;67.41;102780.69;5095465;27;45923;-76
2021/12/17 14:36:08;;;;;;;;;20.75;14.75;;;;;11.64;67.31;102771.19;5095538;27;45932;-76
2021/12/17 14:38:41;;;;;;;;;21.50;18.75;;;;;11.61;67.20;102773.91;5095656;27;46357;-77
2021/12/17 14:41:12;;;;;;;;;22.50;21.50;;;;;11.60;67.38;102774.84;5095554;27;45591;-77
2021/12/17 14:43:48;;;;;;;;;18.25;15.50;;;;;11.58;67.18;102767.94;5095770;27;45803;-75
2021/12/17 15:00:22;;;;;;;;;21.75;18.50;;;;;11.46;67.24;102747.44;5094784;27;45651;-78
2021/12/17 15:02:50;;;;;;;;;18.00;15.75;;;;;11.51;67.05;102759.44;5082401;27;45720;-78
2021/12/17 15:05:19;;;;;;;;;20.00;16.00;;;;;11.50;67.14;102762.97;5095586;27;45512;-77
2021/12/17 15:07:45;;;;;;;;;16.50;14.25;;;;;11.48;67.31;102761.34;5094853;27;47374;-78
2021/12/17 15:10:12;;;;;;;;;19.25;14.75;;;;;11.44;67.09;102751.91;5094331;27;47347;-76
2021/12/17 15:12:38;;;;;;;;;17.75;15.50;;;;;11.52;67.39;102776.06;5094741;27;45892;-76
2021/12/17 15:15:09;;;;;;;;;18.75;16.50;;;;;11.51;67.29;102769.09;5076737;27;45490;-76
2021/12/17 15:17:34;;;;;;;;;23.00;19.75;;;;;11.46;67.29;102771.91;5094553;27;46532;-78
2021/12/17 15:20:00;;;;;;;;;20.25;18.75;;;;;11.46;67.22;102769.28;5093771;27;47124;-76